Time;durP1;ratioP1;P1;durP2;ratioP2;P2;SDS_P1;SDS_P2;PMS_P1;PMS_P2;Temp;Humidity;BMP_temperature;BMP_pressure;BME280_temperature;BME280_humidity;BME280_pressure;Samples;Min_cycle;Max_cycle;Signal;HPM_P1;HPM_P2
2023/06/07 00:00:51;;;;;;;2.25;1.45;;;9.00;99.90;;;;;;5053085;28;20451;-67
2023/06/07 00:03:17;;;;;;;4.03;1.73;;;9.00;99.90;;;;;;5068616;28;20072;-67
2023/06/07 00:05:43;;;;;;;3.28;2.10;;;9.10;99.90;;;;;;5070678;28;20129;-67
2023/06/07 00:08:09;;;;;;;2.45;1.35;;;9.00;99.90;;;;;;5070390;28;20053;-67
2023/06/07 00:10:36;;;;;;;2.85;1.30;;;9.00;99.90;;;;;;5069680;28;20489;-67
2023/06/07 00:13:03;;;;;;;3.17;1.58;;;9.00;99.90;;;;;;5069225;28;20189;-67
2023/06/07 00:15:29;;;;;;;3.15;1.52;;;9.00;99.90;;;;;;5069178;28;20491;-67
2023/06/07 00:18:00;;;;;;;2.55;1.63;;;9.00;99.90;;;;;;5069793;28;20035;-67
2023/06/07 00:20:30;;;;;;;5.95;2.35;;;8.90;99.90;;;;;;5070452;28;20463;-67
2023/06/07 00:22:56;;;;;;;;;;;8.90;99.90;;;;;;5069172;28;20055;-67
2023/06/07 00:25:24;;;;;;;2.28;0.88;;;8.80;99.90;;;;;;5068410;28;19916;-67
2023/06/07 00:27:50;;;;;;;4.65;1.70;;;8.70;99.90;;;;;;5068855;28;20412;-67
2023/06/07 00:30:18;;;;;;;5.20;1.27;;;8.70;99.90;;;;;;5052227;28;20037;-67
2023/06/07 00:32:44;;;;;;;4.90;1.40;;;8.70;99.90;;;;;;5068540;28;20446;-67
2023/06/07 00:35:11;;;;;;;2.47;1.40;;;8.70;99.90;;;;;;5051973;28;20040;-67
2023/06/07 00:37:38;;;;;;;3.40;1.63;;;8.70;99.90;;;;;;5069443;28;20032;-67
2023/06/07 00:40:07;;;;;;;2.25;1.25;;;8.70;99.90;;;;;;5052165;28;20052;-67
2023/06/07 00:42:33;;;;;;;2.40;1.27;;;8.70;99.90;;;;;;5068453;28;20052;-66
2023/06/07 00:44:59;;;;;;;3.95;2.35;;;8.70;99.90;;;;;;5067748;28;20049;-67
2023/06/07 00:47:26;;;;;;;5.82;1.45;;;8.70;99.90;;;;;;5068349;28;20132;-66
2023/06/07 00:49:53;;;;;;;4.90;1.92;;;8.70;99.90;;;;;;5068219;28;20044;-67
2023/06/07 00:52:20;;;;;;;3.75;1.30;;;8.70;99.90;;;;;;5067879;28;20938;-66
2023/06/07 00:54:47;;;;;;;3.92;1.75;;;8.70;99.90;;;;;;5068140;28;20043;-66
2023/06/07 00:57:15;;;;;;;5.28;2.15;;;8.70;99.90;;;;;;5068067;28;20045;-66
2023/06/07 00:59:42;;;;;;;4.35;2.15;;;8.70;99.90;;;;;;5067315;28;20500;-67
2023/06/07 01:02:08;;;;;;;2.92;1.48;;;8.70;99.90;;;;;;5068126;28;20485;-66
2023/06/07 01:04:34;;;;;;;5.85;1.50;;;8.60;99.90;;;;;;5069759;28;20052;-66
2023/06/07 01:07:04;;;;;;;4.28;1.48;;;8.60;99.90;;;;;;5067693;28;20033;-66
2023/06/07 01:09:30;;;;;;;4.23;1.93;;;8.60;99.90;;;;;;5069150;28;20133;-66
2023/06/07 01:11:57;;;;;;;3.42;1.55;;;8.60;99.90;;;;;;5068293;28;20075;-66
2023/06/07 01:14:24;;;;;;;7.30;1.80;;;8.50;99.90;;;;;;5067291;28;20048;-66
2023/06/07 01:16:52;;;;;;;6.03;1.77;;;8.50;99.90;;;;;;5068103;28;20066;-66
2023/06/07 01:19:21;;;;;;;8.52;1.58;;;8.50;99.90;;;;;;5067760;28;20115;-66
2023/06/07 01:21:51;;;;;;;3.70;1.70;;;8.40;99.90;;;;;;5067445;28;20047;-66
2023/06/07 01:24:18;;;;;;;3.85;2.10;;;8.40;99.90;;;;;;5067661;28;20044;-66
2023/06/07 01:26:47;;;;;;;4.70;1.58;;;8.40;99.90;;;;;;5068546;28;20404;-66
2023/06/07 01:29:15;;;;;;;3.23;1.53;;;8.40;99.90;;;;;;5051255;28;20047;-66
2023/06/07 01:31:43;;;;;;;3.80;1.70;;;8.30;99.90;;;;;;5068790;28;20036;-66
2023/06/07 01:34:10;;;;;;;3.95;1.63;;;8.30;99.90;;;;;;5068416;28;20075;-66
2023/06/07 01:36:36;;;;;;;3.63;1.55;;;8.30;99.90;;;;;;5051287;28;20036;-66
2023/06/07 01:39:04;;;;;;;1.10;0.68;;;8.30;99.90;;;;;;5069155;28;20036;-66
2023/06/07 01:41:31;;;;;;;2.95;1.48;;;8.30;99.90;;;;;;5066913;28;20044;-66
2023/06/07 01:43:59;;;;;;;1.70;1.02;;;8.30;99.90;;;;;;5069175;28;20055;-66
2023/06/07 01:46:29;;;;;;;1.98;1.23;;;8.30;99.90;;;;;;5068770;28;20044;-66
2023/06/07 01:48:55;;;;;;;4.03;1.25;;;8.30;99.90;;;;;;5068481;28;20401;-66
2023/06/07 01:51:21;;;;;;;3.15;1.50;;;8.30;99.90;;;;;;5067287;28;20078;-66
2023/06/07 01:53:49;;;;;;;3.60;1.77;;;8.30;99.90;;;;;;5068936;28;20109;-66
2023/06/07 01:56:48;;;;;;;2.47;1.05;;;8.30;99.90;;;;;;5067034;28;20028;-66
2023/06/07 01:59:42;;;;;;;2.83;1.55;;;8.20;99.90;;;;;;5067436;28;20080;-66
2023/06/07 02:02:31;;;;;;;2.50;1.20;;;8.30;99.90;;;;;;5067032;28;20105;-66
2023/06/07 02:05:02;;;;;;;1.80;0.93;;;8.30;99.90;;;;;;5056834;28;20053;-66
2023/06/07 02:07:33;;;;;;;2.38;1.05;;;8.20;99.90;;;;;;5051069;28;20052;-66
2023/06/07 02:10:01;;;;;;;2.15;1.25;;;8.20;99.90;;;;;;5066687;28;20044;-66
2023/06/07 02:12:28;;;;;;;2.00;0.77;;;8.20;99.90;;;;;;5069468;28;20044;-66
2023/06/07 02:14:57;;;;;;;3.30;1.40;;;8.20;99.90;;;;;;5055029;28;20037;-66
2023/06/07 02:17:24;;;;;;;2.45;1.25;;;8.20;99.90;;;;;;5070827;28;20041;-66
2023/06/07 02:19:50;;;;;;;3.80;1.58;;;8.20;99.90;;;;;;5072661;28;20048;-66
2023/06/07 02:22:15;;;;;;;2.83;1.25;;;8.20;99.90;;;;;;5071427;28;20048;-66
2023/06/07 02:24:41;;;;;;;6.05;1.25;;;8.30;99.90;;;;;;5053724;28;20389;-66
2023/06/07 02:27:08;;;;;;;2.55;1.30;;;8.30;99.90;;;;;;5071266;28;20032;-66
2023/06/07 02:29:35;;;;;;;2.05;1.02;;;8.30;99.90;;;;;;5070544;28;20040;-66
2023/06/07 02:32:01;;;;;;;4.32;1.42;;;8.30;99.90;;;;;;5072081;28;20044;-66
2023/06/07 02:34:29;;;;;;;3.47;1.75;;;8.30;99.90;;;;;;5070901;28;20040;-65
2023/06/07 02:36:55;;;;;;;2.08;1.10;;;8.40;99.90;;;;;;5070359;28;20586;-66
2023/06/07 02:39:21;;;;;;;3.15;1.23;;;8.40;99.90;;;;;;5071187;28;20043;-66
2023/06/07 02:41:47;;;;;;;5.13;2.13;;;8.50;99.90;;;;;;5072267;28;20393;-66
2023/06/07 02:44:13;;;;;;;7.70;1.65;;;8.60;99.90;;;;;;5070427;28;20044;-66
2023/06/07 02:46:39;;;;;;;2.63;1.52;;;8.80;99.90;;;;;;5054567;28;20065;-66
2023/06/07 02:49:05;;;;;;;3.40;1.42;;;8.80;99.90;;;;;;5072130;28;20392;-66
2023/06/07 02:51:31;;;;;;;1.88;1.10;;;9.00;99.90;;;;;;5070944;28;20386;-66
2023/06/07 02:53:57;;;;;;;4.03;1.55;;;9.00;99.90;;;;;;5070463;28;20056;-66
2023/06/07 02:56:24;;;;;;;2.65;1.20;;;9.10;99.90;;;;;;5070483;28;20047;-66
2023/06/07 02:58:49;;;;;;;3.97;1.38;;;9.20;99.90;;;;;;5069739;28;20519;-68
2023/06/07 03:01:16;;;;;;;3.55;1.77;;;9.40;99.90;;;;;;5070379;28;20040;-68
2023/06/07 03:03:43;;;;;;;4.93;1.27;;;9.40;99.90;;;;;;5053654;28;20044;-68
2023/06/07 03:06:09;;;;;;;3.70;1.30;;;9.50;99.90;;;;;;5069750;28;20043;-68
2023/06/07 03:08:36;;;;;;;4.22;1.00;;;9.60;99.90;;;;;;5071921;28;20046;-68
2023/06/07 03:11:02;;;;;;;2.60;0.95;;;9.70;99.90;;;;;;5070325;28;20032;-68
2023/06/07 03:13:27;;;;;;;1.63;0.93;;;9.80;99.90;;;;;;5069566;28;20485;-69
2023/06/07 03:15:53;;;;;;;2.53;1.13;;;9.90;99.90;;;;;;5070518;28;20131;-69
2023/06/07 03:18:19;;;;;;;3.05;1.38;;;10.00;99.90;;;;;;5070059;28;20044;-69
2023/06/07 03:20:47;;;;;;;3.60;1.58;;;10.10;99.90;;;;;;5069713;28;20127;-69
2023/06/07 03:23:13;;;;;;;7.53;1.50;;;10.10;99.90;;;;;;5071037;28;20115;-69
2023/06/07 03:25:40;;;;;;;1.85;1.17;;;10.20;99.90;;;;;;5070803;28;20462;-69
2023/06/07 03:28:05;;;;;;;8.55;1.70;;;10.30;99.90;;;;;;5071129;28;20123;-69
2023/06/07 03:30:31;;;;;;;2.67;0.90;;;10.40;99.90;;;;;;5069894;28;20123;-69
2023/06/07 03:32:57;;;;;;;3.00;1.30;;;10.40;99.90;;;;;;5070473;28;20374;-69
2023/06/07 03:35:23;;;;;;;3.38;1.42;;;10.50;99.90;;;;;;5071294;28;20040;-69
2023/06/07 03:37:49;;;;;;;2.00;1.05;;;10.50;99.90;;;;;;5053487;28;20063;-68
2023/06/07 03:40:15;;;;;;;4.20;1.30;;;10.50;99.90;;;;;;5069209;28;20051;-69
2023/06/07 03:42:41;;;;;;;3.15;1.25;;;10.60;99.90;;;;;;5070941;28;20044;-68
2023/06/07 03:45:07;;;;;;;3.60;0.95;;;10.60;99.90;;;;;;5052964;28;20191;-68
2023/06/07 03:47:33;;;;;;;1.88;1.08;;;10.70;99.90;;;;;;5070601;28;20044;-69
2023/06/07 03:49:59;;;;;;;2.15;0.88;;;10.70;99.90;;;;;;5070483;28;20211;-69
2023/06/07 03:52:25;;;;;;;1.98;1.13;;;10.80;99.90;;;;;;5069415;28;20048;-69
2023/06/07 03:54:51;;;;;;;2.00;1.00;;;10.90;99.90;;;;;;5068776;28;20037;-69
2023/06/07 03:57:17;;;;;;;1.83;0.90;;;10.90;99.90;;;;;;5070746;28;20116;-69
2023/06/07 03:59:43;;;;;;;8.38;1.05;;;10.90;99.90;;;;;;5070781;28;20115;-69
2023/06/07 04:02:09;;;;;;;2.22;1.08;;;11.00;99.90;;;;;;5070109;28;20516;-69
2023/06/07 04:04:34;;;;;;;1.13;0.52;;;11.00;99.90;;;;;;5069197;28;20497;-69
2023/06/07 04:07:03;;;;;;;1.20;0.60;;;11.00;99.90;;;;;;5052750;28;20037;-69
2023/06/07 04:09:29;;;;;;;2.17;1.05;;;11.10;99.90;;;;;;5068704;28;20087;-69
2023/06/07 04:11:56;;;;;;;0.75;0.32;;;11.10;99.90;;;;;;5069232;28;20037;-69
2023/06/07 04:14:22;;;;;;;1.77;0.70;;;11.10;99.90;;;;;;5070501;28;20044;-69
2023/06/07 04:16:48;;;;;;;0.95;0.70;;;11.20;99.90;;;;;;5052043;28;20105;-69
2023/06/07 04:19:13;;;;;;;2.35;0.88;;;11.20;99.90;;;;;;5068994;28;20455;-69
2023/06/07 04:21:39;;;;;;;1.73;0.95;;;11.20;99.90;;;;;;5068262;28;20051;-69
2023/06/07 04:24:06;;;;;;;2.53;0.88;;;11.30;99.90;;;;;;5070347;28;20097;-69
2023/06/07 04:26:31;;;;;;;2.83;1.00;;;11.30;99.90;;;;;;5068746;28;20040;-69
2023/06/07 04:28:58;;;;;;;3.75;0.82;;;11.30;99.90;;;;;;5051358;28;20036;-68
2023/06/07 04:31:29;;;;;;;2.25;0.98;;;11.40;99.90;;;;;;5068829;28;20045;-69
2023/06/07 04:34:01;;;;;;;2.13;1.17;;;11.40;99.90;;;;;;5067987;28;20043;-69
2023/06/07 04:36:30;;;;;;;5.20;1.27;;;11.40;99.90;;;;;;5068236;28;20041;-69
2023/06/07 04:38:58;;;;;;;2.15;0.98;;;11.50;99.90;;;;;;5069248;28;20045;-69
2023/06/07 04:41:32;;;;;;;4.68;0.80;;;11.50;99.90;;;;;;5068555;28;20036;-69
2023/06/07 04:44:00;;;;;;;1.85;0.47;;;11.60;99.90;;;;;;5064605;28;20048;-69
2023/06/07 04:46:30;;;;;;;4.63;0.90;;;11.60;99.90;;;;;;5049119;28;20060;-69
2023/06/07 04:48:57;;;;;;;1.70;0.68;;;11.60;99.90;;;;;;5049453;28;20442;-69
2023/06/07 04:51:25;;;;;;;2.80;0.85;;;11.60;99.90;;;;;;5031790;28;20144;-68
2023/06/07 04:53:58;;;;;;;1.88;1.08;;;11.70;99.90;;;;;;5049269;28;20124;-68
2023/06/07 04:56:26;;;;;;;2.80;0.65;;;11.70;99.90;;;;;;5048973;28;20043;-68
2023/06/07 04:58:56;;;;;;;2.60;1.02;;;11.80;99.90;;;;;;5049768;28;20430;-69
2023/06/07 05:01:22;;;;;;;1.52;0.73;;;11.80;99.90;;;;;;5050377;28;20037;-68
2023/06/07 05:03:57;;;;;;;2.80;0.80;;;11.80;99.90;;;;;;5015741;28;20370;-68
2023/06/07 05:06:23;;;;;;;2.05;0.80;;;11.90;99.90;;;;;;5050280;28;20044;-67
2023/06/07 05:08:49;;;;;;;2.05;0.95;;;11.90;99.90;;;;;;5049077;28;20501;-67
2023/06/07 05:11:15;;;;;;;4.35;1.35;;;12.00;99.90;;;;;;5048396;28;20048;-68
2023/06/07 05:13:41;;;;;;;3.53;0.77;;;12.00;99.90;;;;;;5049168;28;20033;-68
2023/06/07 05:16:15;;;;;;;1.75;0.55;;;12.00;99.90;;;;;;5032094;28;20550;-68
2023/06/07 05:18:42;;;;;;;7.00;1.00;;;12.10;99.90;;;;;;5049473;28;20166;-68
2023/06/07 05:21:08;;;;;;;6.38;1.17;;;12.10;99.90;;;;;;5031577;28;20390;-68
2023/06/07 05:23:35;;;;;;;3.30;0.88;;;12.10;99.90;;;;;;5049779;28;20093;-67
2023/06/07 05:26:00;;;;;;;10.35;1.77;;;12.20;99.90;;;;;;5030789;28;20129;-68
2023/06/07 05:28:26;;;;;;;4.75;0.88;;;12.20;99.90;;;;;;5049840;28;20080;-67
2023/06/07 05:30:53;;;;;;;1.70;1.08;;;12.30;99.90;;;;;;5048531;28;20048;-69
2023/06/07 05:33:19;;;;;;;2.30;1.20;;;12.30;99.90;;;;;;5049195;28;20044;-68
2023/06/07 05:35:46;;;;;;;1.02;0.68;;;12.30;99.90;;;;;;5047454;28;20236;-68
2023/06/07 05:38:12;;;;;;;8.60;1.42;;;12.40;99.90;;;;;;5048242;28;20037;-66
2023/06/07 05:40:37;;;;;;;5.57;1.27;;;12.50;99.90;;;;;;5048940;28;20059;-70
2023/06/07 05:43:04;;;;;;;3.35;1.40;;;12.50;99.90;;;;;;5047984;28;20040;-68
2023/06/07 05:45:30;;;;;;;1.77;0.98;;;12.50;99.90;;;;;;5048210;28;20051;-67
2023/06/07 05:47:56;;;;;;;3.10;1.30;;;12.50;99.90;;;;;;5047831;28;20040;-67
2023/06/07 05:50:23;;;;;;;4.43;0.75;;;12.50;99.90;;;;;;5031504;28;20056;-69
2023/06/07 05:52:56;;;;;;;4.07;2.10;;;12.50;99.90;;;;;;5048203;28;20051;-70
2023/06/07 05:55:24;;;;;;;2.58;1.08;;;12.60;99.90;;;;;;5049783;28;20037;-66
2023/06/07 05:57:51;;;;;;;3.63;0.80;;;12.60;99.90;;;;;;5048123;28;20044;-67
2023/06/07 06:00:17;;;;;;;1.85;1.00;;;12.70;99.90;;;;;;5047792;28;20041;-68
2023/06/07 06:02:45;;;;;;;4.35;0.98;;;12.70;99.90;;;;;;5048094;28;20051;-68
2023/06/07 06:05:12;;;;;;;1.75;0.90;;;12.70;99.90;;;;;;5048260;28;20249;-68
2023/06/07 06:07:38;;;;;;;3.72;1.08;;;12.70;99.90;;;;;;5048976;28;20041;-67
2023/06/07 06:10:06;;;;;;;5.20;1.30;;;12.70;99.90;;;;;;5048513;28;20037;-69
2023/06/07 06:12:32;;;;;;;2.20;0.82;;;12.70;99.90;;;;;;5049376;28;20097;-68
2023/06/07 06:15:00;;;;;;;4.82;1.10;;;12.80;99.90;;;;;;5031274;28;20123;-71
2023/06/07 06:17:25;;;;;;;2.92;0.88;;;12.80;99.90;;;;;;5048297;28;20103;-71
2023/06/07 06:19:51;;;;;;;1.48;1.02;;;13.00;99.90;;;;;;5049815;28;20071;-69
2023/06/07 06:22:17;;;;;;;3.28;1.50;;;13.10;99.90;;;;;;5047406;28;20037;-67
2023/06/07 06:24:43;;;;;;;1.23;0.93;;;13.30;99.90;;;;;;5049199;28;20029;-67
2023/06/07 06:27:11;;;;;;;1.40;0.95;;;13.40;99.90;;;;;;5048209;28;20045;-68
2023/06/07 06:29:37;;;;;;;1.80;0.93;;;13.50;99.90;;;;;;5047290;28;20041;-67
2023/06/07 06:32:03;;;;;;;4.55;1.20;;;13.50;99.90;;;;;;5049332;28;20041;-68
2023/06/07 06:34:29;;;;;;;2.85;1.08;;;13.60;99.90;;;;;;5048009;28;20072;-67
2023/06/07 06:36:57;;;;;;;4.30;1.33;;;13.60;99.90;;;;;;5046094;28;20048;-68
2023/06/07 06:39:25;;;;;;;1.63;0.80;;;13.50;99.90;;;;;;5049460;28;20040;-68
2023/06/07 06:41:51;;;;;;;2.65;1.10;;;13.60;99.90;;;;;;5048980;28;20106;-68
2023/06/07 06:44:18;;;;;;;2.05;0.80;;;13.80;99.90;;;;;;5048430;28;20118;-68
2023/06/07 06:46:44;;;;;;;3.00;0.77;;;14.00;99.90;;;;;;5047674;28;20402;-68
2023/06/07 06:49:09;;;;;;;5.20;0.98;;;14.20;99.90;;;;;;5046294;28;20049;-68
2023/06/07 06:51:35;;;;;;;1.95;0.98;;;14.40;99.90;;;;;;5048925;28;20135;-67
2023/06/07 06:54:01;;;;;;;4.93;1.35;;;14.70;99.90;;;;;;5047799;28;20041;-68
2023/06/07 06:56:27;;;;;;;3.38;1.45;;;15.00;99.90;;;;;;5048829;28;20121;-68
2023/06/07 06:58:53;;;;;;;6.25;1.45;;;15.40;99.90;;;;;;5050255;28;20037;-69
2023/06/07 07:01:18;;;;;;;2.50;1.00;;;15.70;99.90;;;;;;5052471;28;20700;-69
2023/06/07 07:03:44;;;;;;;1.67;0.95;;;16.00;99.90;;;;;;5050834;28;20041;-70
2023/06/07 07:06:10;;;;;;;7.20;1.88;;;16.20;99.90;;;;;;5052682;28;20041;-69
2023/06/07 07:08:36;;;;;;;4.70;1.48;;;16.40;99.90;;;;;;5051283;28;20473;-69
2023/06/07 07:11:03;;;;;;;2.90;0.88;;;16.50;99.90;;;;;;5051411;28;20037;-68
2023/06/07 07:13:29;;;;;;;2.53;0.70;;;16.70;99.90;;;;;;5051418;28;20033;-69
2023/06/07 07:15:55;;;;;;;2.38;1.05;;;17.00;99.90;;;;;;5034528;28;20040;-69
2023/06/07 07:18:21;;;;;;;1.13;0.60;;;17.00;99.90;;;;;;5033724;28;20044;-70
2023/06/07 07:20:47;;;;;;;3.00;0.85;;;17.10;99.90;;;;;;5051723;28;20040;-70
2023/06/07 07:23:12;;;;;;;1.75;0.88;;;17.40;99.90;;;;;;5050914;28;20041;-69
2023/06/07 07:25:38;;;;;;;1.25;0.68;;;17.50;99.90;;;;;;5033978;28;20047;-68
2023/06/07 07:28:04;;;;;;;1.42;0.73;;;17.70;99.90;;;;;;5051238;28;20060;-66
2023/06/07 07:30:30;;;;;;;1.65;1.00;;;17.80;99.90;;;;;;5050854;28;20151;-68
2023/06/07 07:32:56;;;;;;;3.58;0.75;;;18.00;99.90;;;;;;5050166;28;20040;-68
2023/06/07 07:35:23;;;;;;;3.95;1.10;;;18.30;99.90;;;;;;5050512;28;20041;-65
2023/06/07 07:37:49;;;;;;;2.15;0.60;;;18.60;99.90;;;;;;5033425;28;20106;-67
2023/06/07 07:40:15;;;;;;;2.10;0.93;;;18.80;99.90;;;;;;5051948;28;20041;-67
2023/06/07 07:42:41;;;;;;;2.50;0.60;;;18.80;99.90;;;;;;5051080;28;20067;-68
2023/06/07 07:45:08;;;;;;;4.82;1.20;;;18.80;99.90;;;;;;5050164;28;20122;-67
2023/06/07 07:47:34;;;;;;;1.08;0.60;;;18.90;99.90;;;;;;5050352;28;20045;-68
2023/06/07 07:50:00;;;;;;;2.78;0.50;;;19.10;99.90;;;;;;5050330;28;20118;-68
2023/06/07 07:52:26;;;;;;;3.00;0.98;;;19.40;99.90;;;;;;5050524;28;20041;-68
2023/06/07 07:54:52;;;;;;;1.27;1.15;;;19.50;99.90;;;;;;5050444;28;20043;-69
2023/06/07 07:57:18;;;;;;;3.47;0.88;;;19.70;99.90;;;;;;5050341;28;20037;-68
2023/06/07 07:59:44;;;;;;;2.53;0.70;;;19.90;99.90;;;;;;5049830;28;20056;-68
2023/06/07 08:02:10;;;;;;;2.03;0.88;;;20.20;99.90;;;;;;5049646;28;20048;-68
2023/06/07 08:04:36;;;;;;;1.95;0.88;;;20.20;99.90;;;;;;5050161;28;20489;-68
2023/06/07 08:07:02;;;;;;;2.10;0.68;;;20.20;99.90;;;;;;5050993;28;20095;-68
2023/06/07 08:09:28;;;;;;;4.07;0.68;;;20.00;99.90;;;;;;5088127;28;20032;-69
2023/06/07 08:11:53;;;;;;;1.98;0.93;;;20.10;99.90;;;;;;5073118;28;20044;-68
2023/06/07 08:14:19;;;;;;;6.63;1.33;;;20.40;99.90;;;;;;5089559;28;20492;-68
2023/06/07 08:16:46;;;;;;;2.17;0.82;;;20.40;99.90;;;;;;5073318;28;20548;-68
2023/06/07 08:19:12;;;;;;;2.90;0.82;;;20.50;99.90;;;;;;5091502;28;20044;-68
2023/06/07 08:21:38;;;;;;;1.98;1.25;;;20.60;99.90;;;;;;5090925;28;20040;-68
2023/06/07 08:24:04;;;;;;;3.33;1.02;;;20.80;99.90;;;;;;5090161;28;20051;-67
2023/06/07 08:26:30;;;;;;;1.85;0.90;;;21.00;99.90;;;;;;5091001;28;20131;-67
2023/06/07 08:28:56;;;;;;;2.15;0.98;;;21.00;99.90;;;;;;5089336;28;20178;-67
2023/06/07 08:31:27;;;;;;;3.00;0.93;;;21.10;99.90;;;;;;5089078;28;20119;-68
2023/06/07 08:33:53;;;;;;;2.67;0.77;;;21.20;99.90;;;;;;5049843;28;20055;-67
2023/06/07 08:36:18;;;;;;;1.83;0.70;;;21.30;99.90;;;;;;5049182;28;20136;-67
2023/06/07 08:38:45;;;;;;;4.32;0.88;;;21.30;99.90;;;;;;5049525;28;20124;-67
2023/06/07 08:41:11;;;;;;;1.10;0.60;;;21.50;99.90;;;;;;5049160;28;20119;-67
2023/06/07 08:43:38;;;;;;;2.53;0.90;;;21.70;99.90;;;;;;5049435;28;20446;-68
2023/06/07 08:46:04;;;;;;;4.72;0.70;;;21.70;99.90;;;;;;5049591;28;20037;-68
2023/06/07 08:48:34;;;;;;;4.47;0.80;;;21.70;99.90;;;;;;5048815;28;20485;-67
2023/06/07 08:51:06;;;;;;;2.08;0.93;;;21.70;99.90;;;;;;5050418;28;20065;-67
2023/06/07 08:53:47;;;;;;;2.97;0.70;;;21.70;99.90;;;;;;5050866;28;20142;-67
2023/06/07 08:56:13;;;;;;;1.88;0.73;;;21.90;99.90;;;;;;5048734;28;20044;-67
2023/06/07 08:58:40;;;;;;;3.92;0.60;;;22.00;99.90;;;;;;5050605;28;20382;-67
2023/06/07 09:01:08;;;;;;;2.30;0.82;;;22.00;99.90;;;;;;5048937;28;20131;-67
2023/06/07 09:03:33;;;;;;;2.05;0.80;;;22.00;99.90;;;;;;5049773;28;20045;-67
2023/06/07 09:06:00;;;;;;;4.28;0.80;;;22.00;99.90;;;;;;5050760;28;20118;-66
2023/06/07 09:08:26;;;;;;;1.83;0.93;;;22.00;99.90;;;;;;5042451;28;20068;-67
2023/06/07 09:10:52;;;;;;;2.03;0.70;;;22.20;99.90;;;;;;5031958;28;20079;-66
2023/06/07 09:13:21;;;;;;;3.05;0.90;;;22.40;99.90;;;;;;5050266;28;20132;-67
2023/06/07 09:15:53;;;;;;;2.70;0.82;;;22.60;99.90;;;;;;5047909;28;20037;-67
2023/06/07 09:18:19;;;;;;;3.67;0.93;;;22.80;99.90;;;;;;5048979;28;20544;-66
2023/06/07 09:20:45;;;;;;;2.55;0.73;;;23.00;99.90;;;;;;5048722;28;20041;-67
2023/06/07 09:23:16;;;;;;;2.40;1.15;;;23.10;99.10;;;;;;5031747;28;20036;-67
2023/06/07 09:25:46;;;;;;;2.88;0.93;;;23.30;99.40;;;;;;5048831;28;20523;-67
2023/06/07 09:28:13;;;;;;;2.90;1.00;;;23.60;98.80;;;;;;5048958;28;20047;-67
2023/06/07 09:31:00;;;;;;;1.55;0.77;;;23.70;98.00;;;;;;5047937;28;20055;-67
2023/06/07 09:33:29;;;;;;;4.97;0.85;;;24.00;94.70;;;;;;5048852;28;20037;-67
2023/06/07 09:36:10;;;;;;;2.45;0.98;;;24.00;98.20;;;;;;5048606;28;20032;-67
2023/06/07 09:38:37;;;;;;;1.40;0.77;;;23.80;95.40;;;;;;5047846;28;20509;-67
2023/06/07 09:41:05;;;;;;;1.77;1.02;;;23.70;97.40;;;;;;5048753;28;20045;-66
2023/06/07 09:43:47;;;;;;;4.00;0.98;;;23.60;96.60;;;;;;5050103;28;20037;-66
2023/06/07 09:46:13;;;;;;;2.10;1.20;;;23.50;96.60;;;;;;5048711;28;20102;-66
2023/06/07 09:48:53;;;;;;;3.72;1.02;;;23.20;97.00;;;;;;5048438;28;20045;-67
2023/06/07 09:51:20;;;;;;;2.90;0.95;;;23.20;97.30;;;;;;5047847;28;20549;-67
2023/06/07 09:53:55;;;;;;;5.05;1.20;;;23.40;96.40;;;;;;5048446;28;20045;-67
2023/06/07 09:56:22;;;;;;;2.38;1.02;;;23.60;96.10;;;;;;5048429;28;20139;-67
2023/06/07 09:59:09;;;;;;;5.75;1.38;;;23.90;96.90;;;;;;5047854;28;20079;-67
2023/06/07 10:01:45;;;;;;;2.55;1.60;;;24.10;96.60;;;;;;5048221;28;20057;-67
2023/06/07 10:04:11;;;;;;;3.63;1.02;;;24.30;96.20;;;;;;5048563;28;20056;-66
2023/06/07 10:06:43;;;;;;;2.47;1.00;;;24.50;95.30;;;;;;5048940;28;20041;-66
2023/06/07 10:09:12;;;;;;;2.00;0.95;;;24.50;94.70;;;;;;5051221;28;20045;-67
2023/06/07 10:11:41;;;;;;;3.90;1.13;;;24.50;93.70;;;;;;5058642;28;20047;-67
2023/06/07 10:14:12;;;;;;;3.95;1.10;;;24.60;93.40;;;;;;5068333;28;20575;-67
2023/06/07 10:16:45;;;;;;;3.28;1.00;;;24.70;93.60;;;;;;5068530;28;20059;-66
2023/06/07 10:19:27;;;;;;;3.10;0.90;;;24.70;92.90;;;;;;5060432;28;20102;-67
2023/06/07 10:21:55;;;;;;;6.40;1.45;;;24.70;93.00;;;;;;5049271;28;20040;-66
2023/06/07 10:24:27;;;;;;;1.52;0.70;;;24.80;93.50;;;;;;5051018;28;20048;-67
2023/06/07 10:27:03;;;;;;;2.25;0.68;;;25.10;93.10;;;;;;5050749;28;20036;-67
2023/06/07 10:29:45;;;;;;;2.38;1.13;;;25.20;92.10;;;;;;5051637;28;20052;-67
2023/06/07 10:32:16;;;;;;;1.90;1.00;;;25.30;92.50;;;;;;5063070;28;20593;-67
2023/06/07 10:34:46;;;;;;;3.47;1.30;;;25.30;93.00;;;;;;5051313;28;20052;-67
2023/06/07 10:37:16;;;;;;;3.20;0.80;;;25.20;92.70;;;;;;5051844;28;20041;-67
2023/06/07 10:39:43;;;;;;;6.63;1.08;;;25.40;92.40;;;;;;5051085;28;20511;-66
2023/06/07 10:42:10;;;;;;;1.77;0.80;;;25.60;92.50;;;;;;5056264;28;20087;-69
2023/06/07 10:44:37;;;;;;;4.93;0.95;;;25.60;90.70;;;;;;5071589;28;20836;-67
2023/06/07 10:47:35;;;;;;;1.55;0.90;;;25.60;91.60;;;;;;5072117;28;20080;-67
2023/06/07 10:50:01;;;;;;;2.10;1.23;;;25.60;90.70;;;;;;5070861;28;20572;-65
2023/06/07 10:52:27;;;;;;;1.25;0.80;;;25.60;91.50;;;;;;5066549;28;20125;-67
2023/06/07 10:54:53;;;;;;;2.03;0.90;;;25.60;91.60;;;;;;5050935;28;20037;-67
2023/06/07 10:57:39;;;;;;;2.13;1.02;;;25.70;91.70;;;;;;5051422;28;20045;-66
2023/06/07 11:00:28;;;;;;;2.17;1.10;;;25.60;88.20;;;;;;5051340;28;20052;-67
2023/06/07 11:03:10;;;;;;;5.63;1.33;;;25.40;90.60;;;;;;5053432;28;20033;-67
2023/06/07 11:05:55;;;;;;;3.92;0.80;;;25.40;88.90;;;;;;5050617;28;20052;-67
2023/06/07 11:08:32;;;;;;;2.97;1.23;;;25.50;88.60;;;;;;5032986;28;20141;-67
2023/06/07 11:11:00;;;;;;;2.13;0.75;;;25.60;90.40;;;;;;5050467;28;20029;-67
2023/06/07 11:13:39;;;;;;;1.35;0.65;;;25.70;90.10;;;;;;5050326;28;20059;-66
2023/06/07 11:16:24;;;;;;;1.30;0.80;;;25.80;88.90;;;;;;5049561;28;20090;-67
2023/06/07 11:19:05;;;;;;;2.80;1.10;;;25.80;86.70;;;;;;5050134;28;20066;-67
2023/06/07 11:21:57;;;;;;;2.92;0.80;;;25.90;89.10;;;;;;5050711;28;20037;-66
2023/06/07 11:24:23;;;;;;;2.30;1.10;;;25.90;87.00;;;;;;5051183;28;20493;-67
2023/06/07 11:26:50;;;;;;;4.57;1.30;;;25.80;90.10;;;;;;5034404;28;20060;-67
2023/06/07 11:29:20;;;;;;;1.35;0.65;;;25.90;90.30;;;;;;5051737;28;20044;-67
2023/06/07 11:31:59;;;;;;;2.15;0.98;;;26.10;90.10;;;;;;5067738;28;20091;-68
2023/06/07 11:34:30;;;;;;;3.17;1.30;;;26.20;89.90;;;;;;5052029;28;20084;-66
2023/06/07 11:37:14;;;;;;;2.15;0.57;;;26.30;88.70;;;;;;5051689;28;20044;-67
2023/06/07 11:39:40;;;;;;;2.15;1.00;;;26.10;87.00;;;;;;5051970;28;20419;-67
2023/06/07 11:42:06;;;;;;;3.50;1.80;;;26.00;89.70;;;;;;5051937;28;20639;-66
2023/06/07 11:44:34;;;;;;;1.73;1.00;;;26.00;89.20;;;;;;5033336;28;20052;-67
2023/06/07 11:47:05;;;;;;;3.53;0.80;;;26.00;87.70;;;;;;5050921;28;20056;-67
2023/06/07 11:49:32;;;;;;;3.15;1.25;;;26.00;87.10;;;;;;5050667;28;20041;-67
2023/06/07 11:51:58;;;;;;;2.22;1.05;;;26.10;87.80;;;;;;5051903;28;20054;-67
2023/06/07 11:54:25;;;;;;;2.05;1.13;;;26.00;87.60;;;;;;5051489;28;20070;-67
2023/06/07 11:56:53;;;;;;;3.67;1.20;;;25.90;87.20;;;;;;5069277;28;20051;-64
2023/06/07 11:59:22;;;;;;;4.38;1.30;;;25.90;87.30;;;;;;5049962;28;20037;-65
2023/06/07 12:01:51;;;;;;;;;;;26.00;87.20;;;;;;5072106;28;20048;-65
2023/06/07 12:04:18;;;;;;;3.55;1.33;;;26.00;84.50;;;;;;5069568;28;19923;-67
2023/06/07 12:06:46;;;;;;;5.63;0.95;;;26.00;87.20;;;;;;5070204;28;20125;-67
2023/06/07 12:09:12;;;;;;;3.03;1.30;;;26.00;87.30;;;;;;5070605;28;20052;-67
2023/06/07 12:11:38;;;;;;;2.55;1.20;;;25.90;87.20;;;;;;5069612;28;20040;-66
2023/06/07 12:14:06;;;;;;;4.75;1.35;;;25.70;86.30;;;;;;5071511;28;20498;-66
2023/06/07 12:16:32;;;;;;;2.55;1.13;;;25.80;86.00;;;;;;5069978;28;20040;-66
2023/06/07 12:18:57;;;;;;;6.22;1.27;;;25.60;85.10;;;;;;5071074;28;20094;-66
2023/06/07 12:21:24;;;;;;;1.80;0.77;;;25.60;86.10;;;;;;5071335;28;20036;-67
2023/06/07 12:23:52;;;;;;;1.25;0.68;;;25.60;86.80;;;;;;5071171;28;20619;-67
2023/06/07 12:26:20;;;;;;;4.07;1.17;;;25.70;86.60;;;;;;5070804;28;20040;-67
2023/06/07 12:28:49;;;;;;;6.22;1.27;;;25.80;86.50;;;;;;5070870;28;20501;-67
2023/06/07 12:31:17;;;;;;;3.22;1.10;;;26.00;86.30;;;;;;5069520;28;20051;-67
2023/06/07 12:34:05;;;;;;;2.42;1.20;;;26.00;85.60;;;;;;5069029;28;20519;-67
2023/06/07 12:36:33;;;;;;;3.05;1.95;;;25.90;84.20;;;;;;5070700;28;20119;-67
2023/06/07 12:39:10;;;;;;;1.75;0.98;;;25.80;85.10;;;;;;5070138;28;20485;-67
2023/06/07 12:41:39;;;;;;;2.70;1.05;;;25.70;84.40;;;;;;5069696;28;20524;-66
2023/06/07 12:44:08;;;;;;;3.13;0.80;;;25.60;85.40;;;;;;5069320;28;20048;-67
2023/06/07 12:46:34;;;;;;;;;;;25.70;85.10;;;;;;5052548;28;20048;-66
2023/06/07 12:49:01;;;;;;;6.78;1.30;;;25.80;84.70;;;;;;5069717;28;19916;-67
2023/06/07 12:51:27;;;;;;;2.42;1.17;;;25.80;84.10;;;;;;5069243;28;20049;-67
2023/06/07 12:53:54;;;;;;;2.53;1.20;;;25.60;83.00;;;;;;5069899;28;20496;-66
2023/06/07 12:56:21;;;;;;;2.53;1.50;;;25.50;83.70;;;;;;5068510;28;20513;-66